sensor_id;sensor_type;location;lat;lon;timestamp;pressure;altitude;pressure_sealevel;temperature;humidity
74790;BME280;63318;52.406;13.416;2023-05-10T00:01:15;100870.55;;;10.93;54.21
74790;BME280;63318;52.406;13.416;2023-05-10T00:03:44;100868.04;;;10.89;54.31
74790;BME280;63318;52.406;13.416;2023-05-10T00:06:12;100862.74;;;10.86;54.40
74790;BME280;63318;52.406;13.416;2023-05-10T00:08:40;100859.67;;;10.82;54.29
74790;BME280;63318;52.406;13.416;2023-05-10T00:11:09;100857.44;;;10.78;54.36
74790;BME280;63318;52.406;13.416;2023-05-10T00:13:37;100859.70;;;10.75;54.62
74790;BME280;63318;52.406;13.416;2023-05-10T00:16:06;100855.36;;;10.71;54.69
74790;BME280;63318;52.406;13.416;2023-05-10T00:18:35;100851.58;;;10.68;54.90
74790;BME280;63318;52.406;13.416;2023-05-10T00:21:03;100850.84;;;10.65;54.70
74790;BME280;63318;52.406;13.416;2023-05-10T00:23:32;100852.92;;;10.61;55.03
74790;BME280;63318;52.406;13.416;2023-05-10T00:26:01;100846.09;;;10.58;55.20
74790;BME280;63318;52.406;13.416;2023-05-10T00:28:30;100843.03;;;10.56;55.23
74790;BME280;63318;52.406;13.416;2023-05-10T00:31:00;100839.12;;;10.54;55.11
74790;BME280;63318;52.406;13.416;2023-05-10T00:33:28;100838.72;;;10.51;55.38
74790;BME280;63318;52.406;13.416;2023-05-10T00:35:56;100835.06;;;10.48;55.19
74790;BME280;63318;52.406;13.416;2023-05-10T00:38:24;100832.25;;;10.46;55.43
74790;BME280;63318;52.406;13.416;2023-05-10T00:40:53;100830.20;;;10.44;55.70
74790;BME280;63318;52.406;13.416;2023-05-10T00:43:22;100825.58;;;10.42;55.77
74790;BME280;63318;52.406;13.416;2023-05-10T00:45:51;100824.28;;;10.41;55.70
74790;BME280;63318;52.406;13.416;2023-05-10T00:48:21;100821.56;;;10.41;55.51
74790;BME280;63318;52.406;13.416;2023-05-10T00:50:50;100821.04;;;10.43;55.89
74790;BME280;63318;52.406;13.416;2023-05-10T00:53:18;100820.98;;;10.44;55.95
74790;BME280;63318;52.406;13.416;2023-05-10T00:55:47;100818.65;;;10.46;56.05
74790;BME280;63318;52.406;13.416;2023-05-10T00:58:15;100815.16;;;10.47;55.77
74790;BME280;63318;52.406;13.416;2023-05-10T01:00:48;100817.15;;;10.48;55.67
74790;BME280;63318;52.406;13.416;2023-05-10T01:03:17;100814.34;;;10.49;56.05
74790;BME280;63318;52.406;13.416;2023-05-10T01:05:46;100811.71;;;10.51;55.79
74790;BME280;63318;52.406;13.416;2023-05-10T01:08:14;100810.67;;;10.51;55.88
74790;BME280;63318;52.406;13.416;2023-05-10T01:10:44;100806.60;;;10.51;56.16
74790;BME280;63318;52.406;13.416;2023-05-10T01:13:14;100801.72;;;10.51;56.04
74790;BME280;63318;52.406;13.416;2023-05-10T01:15:48;100800.45;;;10.49;56.20
74790;BME280;63318;52.406;13.416;2023-05-10T01:18:17;100803.05;;;10.48;56.29
74790;BME280;63318;52.406;13.416;2023-05-10T01:20:55;100800.77;;;10.47;56.13
74790;BME280;63318;52.406;13.416;2023-05-10T01:23:39;100797.59;;;10.46;56.35
74790;BME280;63318;52.406;13.416;2023-05-10T01:26:30;100796.71;;;10.45;56.23
74790;BME280;63318;52.406;13.416;2023-05-10T01:32:17;100794.09;;;10.41;56.47
74790;BME280;63318;52.406;13.416;2023-05-10T01:35:02;100794.80;;;10.39;56.52
74790;BME280;63318;52.406;13.416;2023-05-10T01:37:36;100793.46;;;10.37;56.28
74790;BME280;63318;52.406;13.416;2023-05-10T01:40:13;100794.62;;;10.36;56.52
74790;BME280;63318;52.406;13.416;2023-05-10T01:42:54;100789.71;;;10.34;56.81
74790;BME280;63318;52.406;13.416;2023-05-10T01:45:32;100790.65;;;10.32;56.47
74790;BME280;63318;52.406;13.416;2023-05-10T01:48:07;100790.31;;;10.29;56.53
74790;BME280;63318;52.406;13.416;2023-05-10T01:50:40;100792.86;;;10.27;56.79
74790;BME280;63318;52.406;13.416;2023-05-10T01:53:11;100791.63;;;10.25;56.78
74790;BME280;63318;52.406;13.416;2023-05-10T01:55:44;100791.89;;;10.23;57.03
74790;BME280;63318;52.406;13.416;2023-05-10T01:58:17;100788.05;;;10.19;57.03
74790;BME280;63318;52.406;13.416;2023-05-10T02:00:49;100785.04;;;10.16;56.97
74790;BME280;63318;52.406;13.416;2023-05-10T02:03:22;100788.48;;;10.13;57.06
74790;BME280;63318;52.406;13.416;2023-05-10T02:05:53;100781.24;;;10.10;57.32
74790;BME280;63318;52.406;13.416;2023-05-10T02:08:23;100782.17;;;10.06;57.74
74790;BME280;63318;52.406;13.416;2023-05-10T02:10:54;100780.28;;;10.03;57.30
74790;BME280;63318;52.406;13.416;2023-05-10T02:13:24;100779.48;;;10.01;57.76
74790;BME280;63318;52.406;13.416;2023-05-10T02:15:55;100780.09;;;9.99;57.67
74790;BME280;63318;52.406;13.416;2023-05-10T02:18:25;100780.56;;;9.96;57.82
74790;BME280;63318;52.406;13.416;2023-05-10T02:20:56;100780.34;;;9.93;58.06
74790;BME280;63318;52.406;13.416;2023-05-10T02:23:26;100779.76;;;9.90;58.17
74790;BME280;63318;52.406;13.416;2023-05-10T02:25:56;100776.18;;;9.87;57.94
74790;BME280;63318;52.406;13.416;2023-05-10T02:28:26;100773.67;;;9.85;58.77
74790;BME280;63318;52.406;13.416;2023-05-10T02:30:56;100773.17;;;9.82;58.33
74790;BME280;63318;52.406;13.416;2023-05-10T02:33:26;100772.59;;;9.79;58.23
74790;BME280;63318;52.406;13.416;2023-05-10T02:35:56;100769.80;;;9.76;58.38
74790;BME280;63318;52.406;13.416;2023-05-10T02:38:27;100769.39;;;9.73;58.61
74790;BME280;63318;52.406;13.416;2023-05-10T02:40:56;100770.48;;;9.70;58.43
74790;BME280;63318;52.406;13.416;2023-05-10T02:43:25;100767.85;;;9.67;59.02
74790;BME280;63318;52.406;13.416;2023-05-10T02:45:54;100769.94;;;9.64;58.99
74790;BME280;63318;52.406;13.416;2023-05-10T02:48:22;100765.10;;;9.61;58.68
74790;BME280;63318;52.406;13.416;2023-05-10T02:50:52;100770.46;;;9.58;58.98
74790;BME280;63318;52.406;13.416;2023-05-10T02:53:28;100770.27;;;9.54;58.93
74790;BME280;63318;52.406;13.416;2023-05-10T02:56:00;100770.09;;;9.52;58.79
74790;BME280;63318;52.406;13.416;2023-05-10T02:58:31;100772.59;;;9.48;59.15
74790;BME280;63318;52.406;13.416;2023-05-10T03:01:00;100770.46;;;9.44;59.76
74790;BME280;63318;52.406;13.416;2023-05-10T03:03:29;100774.33;;;9.41;59.47
74790;BME280;63318;52.406;13.416;2023-05-10T03:05:57;100772.64;;;9.38;59.69
74790;BME280;63318;52.406;13.416;2023-05-10T03:08:26;100771.45;;;9.35;59.41
74790;BME280;63318;52.406;13.416;2023-05-10T03:11:15;100772.32;;;9.33;59.37
74790;BME280;63318;52.406;13.416;2023-05-10T03:13:51;100772.91;;;9.29;59.55
74790;BME280;63318;52.406;13.416;2023-05-10T03:16:27;100767.33;;;9.26;59.80
74790;BME280;63318;52.406;13.416;2023-05-10T03:19:05;100765.76;;;9.24;60.03
74790;BME280;63318;52.406;13.416;2023-05-10T03:21:38;100768.69;;;9.22;59.89
74790;BME280;63318;52.406;13.416;2023-05-10T03:24:12;100764.17;;;9.19;60.18
74790;BME280;63318;52.406;13.416;2023-05-10T03:26:45;100768.54;;;9.17;60.02
74790;BME280;63318;52.406;13.416;2023-05-10T03:29:15;100768.52;;;9.16;60.14
74790;BME280;63318;52.406;13.416;2023-05-10T03:31:44;100767.95;;;9.13;60.20
74790;BME280;63318;52.406;13.416;2023-05-10T03:34:12;100765.43;;;9.11;60.29
74790;BME280;63318;52.406;13.416;2023-05-10T03:36:40;100764.20;;;9.09;60.46
74790;BME280;63318;52.406;13.416;2023-05-10T03:39:09;100765.13;;;9.07;60.39
74790;BME280;63318;52.406;13.416;2023-05-10T03:41:38;100765.32;;;9.05;60.69
74790;BME280;63318;52.406;13.416;2023-05-10T03:44:07;100763.93;;;9.03;60.83
74790;BME280;63318;52.406;13.416;2023-05-10T03:46:35;100762.08;;;9.01;60.58
74790;BME280;63318;52.406;13.416;2023-05-10T03:49:04;100759.91;;;9.00;60.34
74790;BME280;63318;52.406;13.416;2023-05-10T03:51:32;100758.46;;;8.99;60.91
74790;BME280;63318;52.406;13.416;2023-05-10T03:54:00;100760.40;;;8.98;60.82
74790;BME280;63318;52.406;13.416;2023-05-10T03:56:29;100757.77;;;8.97;60.60
74790;BME280;63318;52.406;13.416;2023-05-10T03:58:58;100756.94;;;8.97;60.94
74790;BME280;63318;52.406;13.416;2023-05-10T04:01:27;100755.73;;;8.96;61.14
74790;BME280;63318;52.406;13.416;2023-05-10T04:03:55;100758.00;;;8.96;61.02
74790;BME280;63318;52.406;13.416;2023-05-10T04:06:23;100766.20;;;8.97;61.04
74790;BME280;63318;52.406;13.416;2023-05-10T04:08:52;100755.34;;;8.96;61.01
74790;BME280;63318;52.406;13.416;2023-05-10T04:11:21;100760.38;;;8.97;61.15
74790;BME280;63318;52.406;13.416;2023-05-10T04:13:50;100757.00;;;8.97;61.06
74790;BME280;63318;52.406;13.416;2023-05-10T04:16:18;100755.37;;;8.98;61.18
74790;BME280;63318;52.406;13.416;2023-05-10T04:18:47;100753.14;;;8.99;61.38
74790;BME280;63318;52.406;13.416;2023-05-10T04:21:16;100754.59;;;9.01;61.29
74790;BME280;63318;52.406;13.416;2023-05-10T04:23:45;100754.34;;;9.02;61.38
74790;BME280;63318;52.406;13.416;2023-05-10T04:26:14;100753.74;;;9.04;61.30
74790;BME280;63318;52.406;13.416;2023-05-10T04:28:43;100755.86;;;9.06;61.31
74790;BME280;63318;52.406;13.416;2023-05-10T04:31:11;100754.33;;;9.08;60.94
74790;BME280;63318;52.406;13.416;2023-05-10T04:33:48;100749.98;;;9.11;61.04
74790;BME280;63318;52.406;13.416;2023-05-10T04:36:19;100751.02;;;9.16;61.21
74790;BME280;63318;52.406;13.416;2023-05-10T04:38:47;100752.76;;;9.20;61.32
74790;BME280;63318;52.406;13.416;2023-05-10T04:41:16;100748.02;;;9.24;61.58
74790;BME280;63318;52.406;13.416;2023-05-10T04:43:44;100743.07;;;9.28;61.15
74790;BME280;63318;52.406;13.416;2023-05-10T04:46:12;100742.10;;;9.32;61.26
74790;BME280;63318;52.406;13.416;2023-05-10T04:48:41;100742.53;;;9.37;61.42
74790;BME280;63318;52.406;13.416;2023-05-10T04:51:11;100741.45;;;9.42;61.52
74790;BME280;63318;52.406;13.416;2023-05-10T04:53:39;100740.21;;;9.47;61.29
74790;BME280;63318;52.406;13.416;2023-05-10T04:56:08;100735.82;;;9.52;61.43
74790;BME280;63318;52.406;13.416;2023-05-10T04:58:37;100739.06;;;9.58;61.35
74790;BME280;63318;52.406;13.416;2023-05-10T05:01:13;100735.45;;;9.64;61.22
74790;BME280;63318;52.406;13.416;2023-05-10T05:03:42;100739.02;;;9.69;61.56
74790;BME280;63318;52.406;13.416;2023-05-10T05:06:10;100741.66;;;9.75;61.60
74790;BME280;63318;52.406;13.416;2023-05-10T05:08:38;100740.54;;;9.82;61.44
74790;BME280;63318;52.406;13.416;2023-05-10T05:11:06;100740.79;;;9.89;61.52
74790;BME280;63318;52.406;13.416;2023-05-10T05:13:35;100740.33;;;9.95;61.30
74790;BME280;63318;52.406;13.416;2023-05-10T05:16:04;100740.42;;;10.02;61.41
74790;BME280;63318;52.406;13.416;2023-05-10T05:18:34;100738.51;;;10.08;61.05
74790;BME280;63318;52.406;13.416;2023-05-10T05:21:02;100733.85;;;10.17;61.10
74790;BME280;63318;52.406;13.416;2023-05-10T05:23:31;100731.55;;;10.25;60.82
74790;BME280;63318;52.406;13.416;2023-05-10T05:26:00;100734.80;;;10.33;61.30
74790;BME280;63318;52.406;13.416;2023-05-10T05:28:29;100735.71;;;10.44;61.27
74790;BME280;63318;52.406;13.416;2023-05-10T05:30:57;100731.19;;;10.56;60.80
74790;BME280;63318;52.406;13.416;2023-05-10T05:33:26;100735.16;;;10.67;60.89
74790;BME280;63318;52.406;13.416;2023-05-10T05:35:55;100727.68;;;10.82;60.82
74790;BME280;63318;52.406;13.416;2023-05-10T05:38:24;100727.91;;;10.97;60.71
74790;BME280;63318;52.406;13.416;2023-05-10T05:40:52;100726.08;;;11.12;60.56
74790;BME280;63318;52.406;13.416;2023-05-10T05:43:20;100721.84;;;11.31;60.43
74790;BME280;63318;52.406;13.416;2023-05-10T05:45:49;100723.55;;;11.49;60.10
74790;BME280;63318;52.406;13.416;2023-05-10T05:48:18;100721.41;;;11.70;59.75
74790;BME280;63318;52.406;13.416;2023-05-10T05:50:46;100719.63;;;11.93;59.42
74790;BME280;63318;52.406;13.416;2023-05-10T05:53:15;100720.15;;;12.16;58.99
74790;BME280;63318;52.406;13.416;2023-05-10T05:55:52;100716.69;;;12.39;58.69
74790;BME280;63318;52.406;13.416;2023-05-10T05:58:21;100717.86;;;12.66;58.26
74790;BME280;63318;52.406;13.416;2023-05-10T06:00:49;100720.59;;;12.91;57.58
74790;BME280;63318;52.406;13.416;2023-05-10T06:03:18;100716.40;;;13.16;56.98
74790;BME280;63318;52.406;13.416;2023-05-10T06:05:46;100715.08;;;13.40;56.77
74790;BME280;63318;52.406;13.416;2023-05-10T06:08:16;100721.74;;;13.65;56.34
74790;BME280;63318;52.406;13.416;2023-05-10T06:10:45;100719.55;;;13.91;55.96
74790;BME280;63318;52.406;13.416;2023-05-10T06:13:13;100721.33;;;14.20;55.83
74790;BME280;63318;52.406;13.416;2023-05-10T06:15:42;100716.70;;;14.50;55.17
74790;BME280;63318;52.406;13.416;2023-05-10T06:18:10;100714.23;;;14.78;54.52
74790;BME280;63318;52.406;13.416;2023-05-10T06:20:38;100714.45;;;15.03;53.66
74790;BME280;63318;52.406;13.416;2023-05-10T06:23:09;100711.05;;;15.29;53.09
74790;BME280;63318;52.406;13.416;2023-05-10T06:25:37;100714.43;;;15.52;52.10
74790;BME280;63318;52.406;13.416;2023-05-10T06:28:05;100712.89;;;15.71;51.85
74790;BME280;63318;52.406;13.416;2023-05-10T06:30:35;100712.45;;;15.90;51.51
74790;BME280;63318;52.406;13.416;2023-05-10T06:33:04;100716.02;;;16.10;51.27
74790;BME280;63318;52.406;13.416;2023-05-10T06:35:32;100716.02;;;16.32;51.09
74790;BME280;63318;52.406;13.416;2023-05-10T06:38:01;100711.86;;;16.54;50.32
74790;BME280;63318;52.406;13.416;2023-05-10T06:40:31;100710.81;;;16.73;49.65
74790;BME280;63318;52.406;13.416;2023-05-10T06:42:59;100709.86;;;16.91;49.06
74790;BME280;63318;52.406;13.416;2023-05-10T06:45:29;100713.86;;;17.07;48.73
74790;BME280;63318;52.406;13.416;2023-05-10T06:47:57;100716.50;;;17.20;48.48
74790;BME280;63318;52.406;13.416;2023-05-10T06:50:26;100709.05;;;17.35;48.30
74790;BME280;63318;52.406;13.416;2023-05-10T06:52:54;100710.09;;;17.54;48.08
74790;BME280;63318;52.406;13.416;2023-05-10T06:55:23;100708.25;;;17.73;47.53
74790;BME280;63318;52.406;13.416;2023-05-10T06:57:52;100708.79;;;17.87;46.70
74790;BME280;63318;52.406;13.416;2023-05-10T07:00:21;100702.61;;;17.95;46.40
74790;BME280;63318;52.406;13.416;2023-05-10T07:02:50;100707.48;;;18.09;46.83
74790;BME280;63318;52.406;13.416;2023-05-10T07:05:18;100709.48;;;18.24;46.34
74790;BME280;63318;52.406;13.416;2023-05-10T07:07:47;100706.68;;;18.36;46.26
74790;BME280;63318;52.406;13.416;2023-05-10T07:10:15;100705.77;;;18.53;46.03
74790;BME280;63318;52.406;13.416;2023-05-10T07:12:45;100696.11;;;18.70;45.92
74790;BME280;63318;52.406;13.416;2023-05-10T07:15:13;100699.74;;;18.94;45.33
74790;BME280;63318;52.406;13.416;2023-05-10T07:17:41;100698.52;;;19.10;44.91
74790;BME280;63318;52.406;13.416;2023-05-10T07:20:12;100698.30;;;19.26;44.07
74790;BME280;63318;52.406;13.416;2023-05-10T07:22:40;100695.69;;;19.36;44.04
74790;BME280;63318;52.406;13.416;2023-05-10T07:25:10;100692.02;;;19.49;43.55
74790;BME280;63318;52.406;13.416;2023-05-10T07:27:39;100693.33;;;19.62;42.81
74790;BME280;63318;52.406;13.416;2023-05-10T07:30:09;100692.63;;;19.70;42.97
74790;BME280;63318;52.406;13.416;2023-05-10T07:32:37;100691.49;;;19.85;43.10
74790;BME280;63318;52.406;13.416;2023-05-10T07:35:07;100689.13;;;19.95;42.42
74790;BME280;63318;52.406;13.416;2023-05-10T07:37:36;100685.63;;;20.01;42.65
74790;BME280;63318;52.406;13.416;2023-05-10T07:40:06;100683.67;;;20.13;41.70
74790;BME280;63318;52.406;13.416;2023-05-10T07:42:34;100690.57;;;20.23;42.40
74790;BME280;63318;52.406;13.416;2023-05-10T07:45:03;100693.11;;;20.35;41.58
74790;BME280;63318;52.406;13.416;2023-05-10T07:47:34;100691.76;;;20.45;41.52
74790;BME280;63318;52.406;13.416;2023-05-10T07:50:03;100689.80;;;20.62;41.58
74790;BME280;63318;52.406;13.416;2023-05-10T07:52:31;100692.09;;;20.82;41.57
74790;BME280;63318;52.406;13.416;2023-05-10T07:55:00;100688.48;;;20.97;40.78
74790;BME280;63318;52.406;13.416;2023-05-10T07:57:29;100690.63;;;21.10;40.94
74790;BME280;63318;52.406;13.416;2023-05-10T07:59:57;100688.95;;;21.26;41.03
74790;BME280;63318;52.406;13.416;2023-05-10T08:02:26;100688.70;;;21.36;40.31
74790;BME280;63318;52.406;13.416;2023-05-10T08:04:54;100691.83;;;21.42;39.67
74790;BME280;63318;52.406;13.416;2023-05-10T08:07:24;100689.09;;;21.51;40.32
74790;BME280;63318;52.406;13.416;2023-05-10T08:09:53;100693.34;;;21.59;39.69
74790;BME280;63318;52.406;13.416;2023-05-10T08:12:21;100687.26;;;21.67;39.72
74790;BME280;63318;52.406;13.416;2023-05-10T08:14:50;100687.55;;;21.84;39.81
74790;BME280;63318;52.406;13.416;2023-05-10T08:17:18;100685.98;;;21.96;39.29
74790;BME280;63318;52.406;13.416;2023-05-10T08:19:47;100687.45;;;22.06;38.64
74790;BME280;63318;52.406;13.416;2023-05-10T08:22:15;100692.19;;;22.05;38.26
74790;BME280;63318;52.406;13.416;2023-05-10T08:24:43;100685.98;;;22.01;38.60
74790;BME280;63318;52.406;13.416;2023-05-10T08:27:16;100689.66;;;22.11;38.25
74790;BME280;63318;52.406;13.416;2023-05-10T08:29:44;100691.19;;;22.23;38.31
74790;BME280;63318;52.406;13.416;2023-05-10T08:32:12;100690.34;;;22.30;38.49
74790;BME280;63318;52.406;13.416;2023-05-10T08:34:41;100688.83;;;22.38;38.42
74790;BME280;63318;52.406;13.416;2023-05-10T08:37:10;100689.48;;;22.53;38.71
74790;BME280;63318;52.406;13.416;2023-05-10T08:39:38;100689.61;;;22.68;37.94
74790;BME280;63318;52.406;13.416;2023-05-10T08:42:07;100689.54;;;22.87;38.03
74790;BME280;63318;52.406;13.416;2023-05-10T08:44:39;100694.30;;;23.11;37.75
74790;BME280;63318;52.406;13.416;2023-05-10T08:47:07;100695.55;;;23.27;37.63
74790;BME280;63318;52.406;13.416;2023-05-10T08:49:38;100692.21;;;23.42;37.48
74790;BME280;63318;52.406;13.416;2023-05-10T08:52:07;100695.92;;;23.53;36.71
74790;BME280;63318;52.406;13.416;2023-05-10T08:54:36;100695.96;;;23.58;36.85
74790;BME280;63318;52.406;13.416;2023-05-10T08:57:06;100694.84;;;23.69;36.81
74790;BME280;63318;52.406;13.416;2023-05-10T08:59:35;100690.16;;;23.82;36.62
74790;BME280;63318;52.406;13.416;2023-05-10T09:02:05;100695.99;;;23.97;36.34
74790;BME280;63318;52.406;13.416;2023-05-10T09:04:34;100697.70;;;24.00;35.53
74790;BME280;63318;52.406;13.416;2023-05-10T09:07:03;100692.73;;;24.04;36.05
74790;BME280;63318;52.406;13.416;2023-05-10T09:09:32;100691.73;;;24.09;36.08
74790;BME280;63318;52.406;13.416;2023-05-10T09:12:01;100691.65;;;24.19;36.47
74790;BME280;63318;52.406;13.416;2023-05-10T09:14:30;100694.80;;;24.28;35.98
74790;BME280;63318;52.406;13.416;2023-05-10T09:16:59;100693.41;;;24.28;35.54
74790;BME280;63318;52.406;13.416;2023-05-10T09:19:29;100696.52;;;24.32;35.35
74790;BME280;63318;52.406;13.416;2023-05-10T09:21:58;100701.23;;;24.39;35.31
74790;BME280;63318;52.406;13.416;2023-05-10T09:24:29;100697.16;;;24.41;35.29
74790;BME280;63318;52.406;13.416;2023-05-10T09:26:58;100697.91;;;24.49;35.36
74790;BME280;63318;52.406;13.416;2023-05-10T09:29:26;100694.91;;;24.62;35.46
74790;BME280;63318;52.406;13.416;2023-05-10T09:32:06;100703.85;;;24.79;35.99
74790;BME280;63318;52.406;13.416;2023-05-10T09:34:35;100702.13;;;24.88;34.52
74790;BME280;63318;52.406;13.416;2023-05-10T09:37:05;100700.81;;;24.91;35.13
74790;BME280;63318;52.406;13.416;2023-05-10T09:39:36;100704.16;;;25.03;35.18
74790;BME280;63318;52.406;13.416;2023-05-10T09:42:06;100702.33;;;25.12;34.96
74790;BME280;63318;52.406;13.416;2023-05-10T09:44:36;100701.95;;;25.20;34.31
74790;BME280;63318;52.406;13.416;2023-05-10T09:47:07;100700.66;;;25.25;34.37
74790;BME280;63318;52.406;13.416;2023-05-10T09:49:35;100703.02;;;25.36;34.61
74790;BME280;63318;52.406;13.416;2023-05-10T09:52:06;100700.56;;;25.50;34.21
74790;BME280;63318;52.406;13.416;2023-05-10T09:54:35;100705.75;;;25.65;34.23
74790;BME280;63318;52.406;13.416;2023-05-10T09:57:04;100704.38;;;25.74;33.72
74790;BME280;63318;52.406;13.416;2023-05-10T09:59:34;100702.61;;;25.84;33.50
74790;BME280;63318;52.406;13.416;2023-05-10T10:02:03;100706.85;;;25.93;32.91
74790;BME280;63318;52.406;13.416;2023-05-10T10:04:32;100709.67;;;26.00;33.16
74790;BME280;63318;52.406;13.416;2023-05-10T10:07:07;100709.20;;;26.09;32.45
74790;BME280;63318;52.406;13.416;2023-05-10T10:09:36;100707.65;;;26.01;31.74
74790;BME280;63318;52.406;13.416;2023-05-10T10:12:06;100712.46;;;25.92;32.51
74790;BME280;63318;52.406;13.416;2023-05-10T10:14:35;100710.21;;;25.89;32.85
74790;BME280;63318;52.406;13.416;2023-05-10T10:17:04;100707.12;;;25.98;33.09
74790;BME280;63318;52.406;13.416;2023-05-10T10:19:34;100702.67;;;26.12;33.38
74790;BME280;63318;52.406;13.416;2023-05-10T10:22:02;100704.29;;;26.21;32.54
74790;BME280;63318;52.406;13.416;2023-05-10T10:24:31;100695.07;;;26.24;32.30
74790;BME280;63318;52.406;13.416;2023-05-10T10:27:07;100697.96;;;26.27;32.13
74790;BME280;63318;52.406;13.416;2023-05-10T10:29:41;100692.00;;;26.30;32.03
74790;BME280;63318;52.406;13.416;2023-05-10T10:32:22;100690.09;;;26.37;31.96
74790;BME280;63318;52.406;13.416;2023-05-10T10:34:55;100687.27;;;26.49;32.26
74790;BME280;63318;52.406;13.416;2023-05-10T10:37:24;100686.82;;;26.62;32.11
74790;BME280;63318;52.406;13.416;2023-05-10T10:40:26;100689.04;;;26.68;31.71
74790;BME280;63318;52.406;13.416;2023-05-10T10:42:55;100688.75;;;26.71;31.72
74790;BME280;63318;52.406;13.416;2023-05-10T10:45:25;100686.23;;;26.81;31.57
74790;BME280;63318;52.406;13.416;2023-05-10T10:48:22;100685.27;;;26.92;32.02
74790;BME280;63318;52.406;13.416;2023-05-10T10:50:57;100690.14;;;27.02;31.91
74790;BME280;63318;52.406;13.416;2023-05-10T10:53:28;100690.98;;;27.10;31.44
74790;BME280;63318;52.406;13.416;2023-05-10T10:56:07;100685.65;;;27.08;31.10
74790;BME280;63318;52.406;13.416;2023-05-10T10:58:37;100683.51;;;27.06;31.41
74790;BME280;63318;52.406;13.416;2023-05-10T11:01:16;100683.02;;;27.06;31.24
74790;BME280;63318;52.406;13.416;2023-05-10T11:04:20;100685.23;;;27.07;30.84
74790;BME280;63318;52.406;13.416;2023-05-10T11:06:48;100686.08;;;27.04;30.98
74790;BME280;63318;52.406;13.416;2023-05-10T11:09:17;100679.59;;;27.00;31.06
74790;BME280;63318;52.406;13.416;2023-05-10T11:11:52;100681.13;;;27.05;30.94
74790;BME280;63318;52.406;13.416;2023-05-10T11:14:24;100672.54;;;27.03;30.35
74790;BME280;63318;52.406;13.416;2023-05-10T11:16:55;100667.77;;;27.05;30.57
74790;BME280;63318;52.406;13.416;2023-05-10T11:19:28;100672.37;;;27.03;30.41
74790;BME280;63318;52.406;13.416;2023-05-10T11:22:16;100670.03;;;27.04;30.34
74790;BME280;63318;52.406;13.416;2023-05-10T11:24:59;100674.23;;;27.06;30.72
74790;BME280;63318;52.406;13.416;2023-05-10T11:27:30;100672.44;;;27.13;30.74
74790;BME280;63318;52.406;13.416;2023-05-10T11:30:01;100672.11;;;27.20;30.32
74790;BME280;63318;52.406;13.416;2023-05-10T11:32:33;100670.23;;;27.32;30.08
74790;BME280;63318;52.406;13.416;2023-05-10T11:35:09;100672.42;;;27.42;29.93
74790;BME280;63318;52.406;13.416;2023-05-10T11:37:39;100672.11;;;27.43;29.72
74790;BME280;63318;52.406;13.416;2023-05-10T11:40:09;100673.35;;;27.38;30.20
74790;BME280;63318;52.406;13.416;2023-05-10T11:42:39;100668.77;;;27.37;30.00
74790;BME280;63318;52.406;13.416;2023-05-10T11:45:10;100668.73;;;27.36;29.70
74790;BME280;63318;52.406;13.416;2023-05-10T11:47:38;100670.80;;;27.33;29.97
74790;BME280;63318;52.406;13.416;2023-05-10T11:50:08;100668.94;;;27.37;29.99
74790;BME280;63318;52.406;13.416;2023-05-10T11:52:38;100669.88;;;27.40;29.96
74790;BME280;63318;52.406;13.416;2023-05-10T11:55:07;100668.70;;;27.46;29.83
74790;BME280;63318;52.406;13.416;2023-05-10T11:57:36;100671.11;;;27.48;29.77
74790;BME280;63318;52.406;13.416;2023-05-10T12:00:08;100671.89;;;27.52;29.87
74790;BME280;63318;52.406;13.416;2023-05-10T12:02:37;100675.50;;;27.54;29.80
74790;BME280;63318;52.406;13.416;2023-05-10T12:05:08;100674.21;;;27.48;29.53
74790;BME280;63318;52.406;13.416;2023-05-10T12:07:37;100678.77;;;27.41;29.04
74790;BME280;63318;52.406;13.416;2023-05-10T12:10:08;100678.78;;;27.42;30.09
74790;BME280;63318;52.406;13.416;2023-05-10T12:12:41;100675.18;;;27.47;29.96
74790;BME280;63318;52.406;13.416;2023-05-10T12:15:16;100676.15;;;27.54;29.35
74790;BME280;63318;52.406;13.416;2023-05-10T12:17:47;100672.80;;;27.61;29.45
74790;BME280;63318;52.406;13.416;2023-05-10T12:20:20;100674.55;;;27.71;29.56
74790;BME280;63318;52.406;13.416;2023-05-10T12:22:51;100672.95;;;27.74;29.29
74790;BME280;63318;52.406;13.416;2023-05-10T12:25:22;100681.69;;;27.75;29.57
74790;BME280;63318;52.406;13.416;2023-05-10T12:27:52;100677.03;;;27.74;28.86
74790;BME280;63318;52.406;13.416;2023-05-10T12:30:26;100678.16;;;27.66;29.41
74790;BME280;63318;52.406;13.416;2023-05-10T12:33:00;100680.10;;;27.72;29.25
74790;BME280;63318;52.406;13.416;2023-05-10T12:35:31;100684.92;;;27.81;29.13
74790;BME280;63318;52.406;13.416;2023-05-10T12:38:01;100686.72;;;27.88;28.12
74790;BME280;63318;52.406;13.416;2023-05-10T12:40:49;100684.61;;;27.89;28.83
74790;BME280;63318;52.406;13.416;2023-05-10T12:43:17;100682.91;;;27.90;28.64
74790;BME280;63318;52.406;13.416;2023-05-10T12:45:46;100683.52;;;27.93;29.04
74790;BME280;63318;52.406;13.416;2023-05-10T12:48:14;100687.55;;;27.97;29.18
74790;BME280;63318;52.406;13.416;2023-05-10T12:50:43;100685.23;;;28.00;28.37
74790;BME280;63318;52.406;13.416;2023-05-10T12:53:12;100687.54;;;28.01;28.65
74790;BME280;63318;52.406;13.416;2023-05-10T12:55:40;100685.25;;;28.01;28.28
74790;BME280;63318;52.406;13.416;2023-05-10T12:58:09;100683.23;;;27.96;28.37
74790;BME280;63318;52.406;13.416;2023-05-10T13:00:38;100686.40;;;27.88;28.25
74790;BME280;63318;52.406;13.416;2023-05-10T13:03:06;100685.57;;;27.78;28.16